MDSD/SDQ METAR and TAF weather

Enter ICAO airport designator
Station Type Date Time Source
MDSD METAR 2020/04/06 09:00 UTC NOAA

MDSD 060900Z 01004KT 9999 FEW016 21/20 Q1014 NOSIG


Station Type Date Time Source
MDSD Decoded METAR 2020/04/06 09:00 UTC NOAA

Las Americas, Dominican Republic (MDSD) 18-26N 069-40W
Apr 06, 2020 - 05:00 AM EDT / 2020.04.06 0900 UTC
Wind: from the N (010 degrees) at 5 MPH (4 KT):0
Visibility: greater than 7 mile(s):0
Sky conditions: mostly clear
Temperature: 69 F (21 C)
Dew Point: 68 F (20 C)
Relative Humidity: 94%
Pressure (altimeter): 29.94 in. Hg (1014 hPa)
ob: MDSD 060900Z 01004KT 9999 FEW016 21/20 Q1014 NOSIG
cycle: 9

Station Type Date Time Source
MDSD TAF 2020/04/06 12:14 UTC NOAA

TAF MDSD 061000Z 0612/0712 12010KT 9999 SCT020

Example: see airport list